Airfield :
LOGIN :

Register | Disclaimer

   EN    FR    IT 

 










Legend :    VFR   Marginal VFR   IFR   Intensive IFR   Very Intensive IFR
Visi :
Ceiling :
>= 8 km
>= 3000ft
5 to 8 km
1000 to 3000 ft
1500m to 5 km
500 to 1000 ft
800 to 1500m
200 to 500 ft
< 800m
< 200 ft
Symbols :   Thunderstorms  Fog  Heavy snow  Heavy precipitations  Wind > 20 kt
SIGMETs :     Misc.  Thunderstorms  Icing  Turbulence  Mountain Waves  Volcanic Ashes







- Airport Elevation : 659 ft
- IATA code : LGG


EBLG - Liège

CURRENT METAR :
  • 181520Z 17012KT CAVOK 06/01 Q1016 NOSIG

EXPIRED METARs :
  • 181450Z 17014G24KT CAVOK 07/01 Q1016 NOSIG
  • 181420Z 16014KT CAVOK 07/02 Q1016 NOSIG
  • 181350Z 15011KT CAVOK 07/03 Q1017 NOSIG
  • 181320Z 16011KT 130V190 9999 FEW018 07/03 Q1018 NOSIG
  • 181250Z 17016KT 9999 FEW018 07/03 Q1018 NOSIG

TAF TAF EBLG
Valid from the 18 at 12:00 until the 19 at 18:00 UTC


181110Z 1812/1918 16010KT 9999 FEW015
BECMG 1903/1905 BKN008
TEMPO 1902/1905 4000 RA BKN004 SCT020TCU
BECMG 1904/1906 22010KT
BECMG 1910/1912 SCT012
PROB30
TEMPO 1910/1918 4000 SHRA BKN012 SCT020CB
No reported NOTAMs for that airfield.



MET'MAP, your aeronautical weather chart ! - Copyright ORBIFLY December 2007 - Disclaimer

ORBIFLY MET'MAP TEAM :

Programming & Development : Alexandra Zaïnal
Concept & Development : Baudouin d'Aumeries
Co-Development & Prog : Marc-Olivier Méhu
Technical & hardware support : Manuel Goepfert

Contact : metmap@orbifly.com




SOURCES & CREDITS :

   NOAA